Página principal
METAR-TAF:

METAR-TAF

Aeroportos :

Weno, Micronésia

latitude: 07-28N, longitude: 151-51E, altura: 3 m

Observação actual do tempo

O boletim foi feito há 31 minutos, às 04:50 UTC
Vento 6 kt com direcção variável
Temperatura 30°C
Humidade 84%
Pressão 1009 hPa
Visibilidade: 24.1 km
Poucas nuvensa uma altura de 1500 ft
Nuvens dispersasa uma altura de 12000 ft
Nuvens fragmentadasa uma altura de 28000 ft

METAR: PTKK 250450Z VRB06KT 15SM FEW015 SCT120 BKN280 30/27 A2979 RMK SLP091 T02990268

Hora: 15:21 (05:21 UTC)

Previsão

O boletim foi feito há 5 horas e 41 minutos, às 23:40 UTC
Previsão válida de 25 às 00 UTC a 25 às 24 UTC
Vento 10 kt de este
Visibilidade: 10 km
Poucas nuvensa uma altura de 1400 ft
Nuvens dispersasa uma altura de 12000 ft
aguaceiros nas vizinhanças

TAF: PTKK 242340Z 2500/2524 10010KT P6SM VCSH FEW014 SCT120

Observações e previsões do tempo de mais de 4000 aeroportos (mensagens METAR e TAF).

As estações disponíveis são os pontos amarelos e vermelhos sobre o mapa.

Mova o rato sobre o mapa para ver o nome da estação.

Depois clique no ponto para visualizar as observações e previsões meteorológicas.

Para alterar o mapa : clique nos botões verdes com uma cruz preta para aumentar o zoom; no botão verde com uma pitada de zoom; ou nas setas verdes para mapas adjacentes.


METAR-TAF: